sensor_id;sensor_type;location;lat;lon;timestamp;pressure;altitude;pressure_sealevel;temperature;humidity
75656;BME280;64252;51.094;13.714;2023-09-18T00:00:44;100074.19;;;28.28;41.40
75656;BME280;64252;51.094;13.714;2023-09-18T00:03:10;100075.75;;;28.23;41.45
75656;BME280;64252;51.094;13.714;2023-09-18T00:05:35;100075.16;;;28.14;41.50
75656;BME280;64252;51.094;13.714;2023-09-18T00:08:01;100074.66;;;28.15;41.53
75656;BME280;64252;51.094;13.714;2023-09-18T00:10:27;100066.09;;;28.43;40.61
75656;BME280;64252;51.094;13.714;2023-09-18T00:12:54;100062.63;;;28.45;40.35
75656;BME280;64252;51.094;13.714;2023-09-18T00:15:20;100058.41;;;28.40;41.02
75656;BME280;64252;51.094;13.714;2023-09-18T00:17:46;100056.25;;;28.35;40.92
75656;BME280;64252;51.094;13.714;2023-09-18T00:20:12;100058.63;;;28.31;41.22
75656;BME280;64252;51.094;13.714;2023-09-18T00:22:39;100058.06;;;28.27;40.86
75656;BME280;64252;51.094;13.714;2023-09-18T00:25:05;100055.22;;;28.38;40.96
75656;BME280;64252;51.094;13.714;2023-09-18T00:27:30;100055.06;;;28.10;41.56
75656;BME280;64252;51.094;13.714;2023-09-18T00:29:58;100046.97;;;28.20;41.52
75656;BME280;64252;51.094;13.714;2023-09-18T00:32:23;100054.13;;;28.30;41.14
75656;BME280;64252;51.094;13.714;2023-09-18T00:34:49;100050.66;;;28.26;41.13
75656;BME280;64252;51.094;13.714;2023-09-18T00:37:15;100048.03;;;28.28;41.23
75656;BME280;64252;51.094;13.714;2023-09-18T00:39:42;100040.38;;;28.30;40.89
75656;BME280;64252;51.094;13.714;2023-09-18T00:42:09;100046.41;;;28.21;41.00
75656;BME280;64252;51.094;13.714;2023-09-18T00:44:42;100038.84;;;27.98;41.56
75656;BME280;64252;51.094;13.714;2023-09-18T00:47:08;100035.72;;;28.02;41.73
75656;BME280;64252;51.094;13.714;2023-09-18T00:49:36;100023.53;;;27.92;41.99
75656;BME280;64252;51.094;13.714;2023-09-18T00:52:04;100028.13;;;28.10;41.43
75656;BME280;64252;51.094;13.714;2023-09-18T00:54:31;100029.69;;;28.05;41.53
75656;BME280;64252;51.094;13.714;2023-09-18T00:56:57;100023.63;;;28.09;41.72
75656;BME280;64252;51.094;13.714;2023-09-18T00:59:23;100021.59;;;28.15;41.24
75656;BME280;64252;51.094;13.714;2023-09-18T01:01:49;100029.22;;;28.12;41.74
75656;BME280;64252;51.094;13.714;2023-09-18T01:04:19;100016.56;;;28.15;41.21
75656;BME280;64252;51.094;13.714;2023-09-18T01:06:45;100019.28;;;27.93;42.10
75656;BME280;64252;51.094;13.714;2023-09-18T01:09:11;100016.22;;;28.08;41.84
75656;BME280;64252;51.094;13.714;2023-09-18T01:14:19;100005.84;;;27.90;42.26
75656;BME280;64252;51.094;13.714;2023-09-18T01:16:59;100001.34;;;27.89;42.50
75656;BME280;64252;51.094;13.714;2023-09-18T01:19:42;99996.13;;;27.99;41.83
75656;BME280;64252;51.094;13.714;2023-09-18T01:22:13;99989.69;;;27.83;42.26
75656;BME280;64252;51.094;13.714;2023-09-18T01:24:40;99988.34;;;27.79;42.18
75656;BME280;64252;51.094;13.714;2023-09-18T01:27:11;99989.13;;;27.79;42.58
75656;BME280;64252;51.094;13.714;2023-09-18T01:29:43;99978.13;;;27.89;42.16
75656;BME280;64252;51.094;13.714;2023-09-18T01:32:09;99979.03;;;27.69;42.57
75656;BME280;64252;51.094;13.714;2023-09-18T01:34:42;99979.03;;;27.69;42.95
75656;BME280;64252;51.094;13.714;2023-09-18T01:37:10;99978.56;;;27.76;42.80
75656;BME280;64252;51.094;13.714;2023-09-18T01:39:37;99979.03;;;27.69;42.28
75656;BME280;64252;51.094;13.714;2023-09-18T01:42:06;99974.78;;;27.59;43.10
75656;BME280;64252;51.094;13.714;2023-09-18T01:44:33;99966.03;;;27.54;43.07
75656;BME280;64252;51.094;13.714;2023-09-18T01:47:01;99965.06;;;27.68;42.53
75656;BME280;64252;51.094;13.714;2023-09-18T01:49:33;99958.97;;;27.66;43.03
75656;BME280;64252;51.094;13.714;2023-09-18T01:52:00;99963.66;;;27.52;43.15
75656;BME280;64252;51.094;13.714;2023-09-18T01:54:26;99962.59;;;27.55;42.98
75656;BME280;64252;51.094;13.714;2023-09-18T01:56:52;99954.25;;;27.37;43.54
75656;BME280;64252;51.094;13.714;2023-09-18T01:59:20;99949.22;;;27.32;43.81
75656;BME280;64252;51.094;13.714;2023-09-18T02:01:46;99949.81;;;27.41;43.51
75656;BME280;64252;51.094;13.714;2023-09-18T02:04:12;99952.13;;;27.63;42.94
75656;BME280;64252;51.094;13.714;2023-09-18T02:06:37;99952.63;;;27.62;42.73
75656;BME280;64252;51.094;13.714;2023-09-18T02:09:03;99948.22;;;27.35;43.45
75656;BME280;64252;51.094;13.714;2023-09-18T02:11:29;99952.25;;;27.17;44.06
75656;BME280;64252;51.094;13.714;2023-09-18T02:13:55;99938.91;;;27.25;43.50
75656;BME280;64252;51.094;13.714;2023-09-18T02:16:22;99950.91;;;27.44;43.13
75656;BME280;64252;51.094;13.714;2023-09-18T02:18:50;99951.75;;;27.19;43.63
75656;BME280;64252;51.094;13.714;2023-09-18T02:21:22;99954.25;;;27.37;43.42
75656;BME280;64252;51.094;13.714;2023-09-18T02:23:52;99935.88;;;27.45;43.35
75656;BME280;64252;51.094;13.714;2023-09-18T02:26:19;99932.03;;;27.54;42.95
75656;BME280;64252;51.094;13.714;2023-09-18T02:28:45;99927.16;;;27.40;43.60
75656;BME280;64252;51.094;13.714;2023-09-18T02:31:12;99927.91;;;27.35;43.58
75656;BME280;64252;51.094;13.714;2023-09-18T02:33:38;99925.34;;;27.48;43.04
75656;BME280;64252;51.094;13.714;2023-09-18T02:36:05;99923.59;;;27.25;43.87
75656;BME280;64252;51.094;13.714;2023-09-18T02:38:31;99927.63;;;27.33;44.00
75656;BME280;64252;51.094;13.714;2023-09-18T02:40:57;99924.47;;;26.74;45.17
75656;BME280;64252;51.094;13.714;2023-09-18T02:43:23;99920.44;;;26.91;44.50
75656;BME280;64252;51.094;13.714;2023-09-18T02:45:50;99905.66;;;27.21;44.13
75656;BME280;64252;51.094;13.714;2023-09-18T02:48:18;99910.16;;;27.27;43.88
75656;BME280;64252;51.094;13.714;2023-09-18T02:50:44;99908.88;;;27.28;43.79
75656;BME280;64252;51.094;13.714;2023-09-18T02:53:21;99897.41;;;27.14;44.29
75656;BME280;64252;51.094;13.714;2023-09-18T02:55:49;99904.16;;;26.99;44.49
75656;BME280;64252;51.094;13.714;2023-09-18T02:58:15;99897.22;;;27.23;43.99
75656;BME280;64252;51.094;13.714;2023-09-18T03:00:42;99897.81;;;26.95;44.72
75656;BME280;64252;51.094;13.714;2023-09-18T03:03:11;99890.72;;;26.96;44.73
75656;BME280;64252;51.094;13.714;2023-09-18T03:05:38;99895.28;;;27.08;44.82
75656;BME280;64252;51.094;13.714;2023-09-18T03:08:06;99896.31;;;27.05;44.62
75656;BME280;64252;51.094;13.714;2023-09-18T03:10:37;99891.06;;;27.10;44.24
75656;BME280;64252;51.094;13.714;2023-09-18T03:13:03;99903.03;;;26.91;44.79
75656;BME280;64252;51.094;13.714;2023-09-18T03:15:30;99904.91;;;26.94;44.82
75656;BME280;64252;51.094;13.714;2023-09-18T03:17:57;99900.44;;;26.68;45.36
75656;BME280;64252;51.094;13.714;2023-09-18T03:20:24;99908.50;;;26.84;45.03
75656;BME280;64252;51.094;13.714;2023-09-18T03:22:51;99897.63;;;27.04;44.50
75656;BME280;64252;51.094;13.714;2023-09-18T03:25:17;99888.47;;;27.17;44.32
75656;BME280;64252;51.094;13.714;2023-09-18T03:27:43;99891.22;;;27.32;43.75
75656;BME280;64252;51.094;13.714;2023-09-18T03:30:09;99880.63;;;27.23;44.14
75656;BME280;64252;51.094;13.714;2023-09-18T03:32:38;99884.88;;;26.91;44.74
75656;BME280;64252;51.094;13.714;2023-09-18T03:35:06;99878.28;;;26.90;44.88
75656;BME280;64252;51.094;13.714;2023-09-18T03:37:33;99871.06;;;27.12;44.51
75656;BME280;64252;51.094;13.714;2023-09-18T03:39:59;99862.03;;;27.04;44.55
75656;BME280;64252;51.094;13.714;2023-09-18T03:42:25;99857.84;;;26.79;44.83
75656;BME280;64252;51.094;13.714;2023-09-18T03:44:51;99862.47;;;26.91;45.09
75656;BME280;64252;51.094;13.714;2023-09-18T03:47:17;99864.47;;;27.11;44.23
75656;BME280;64252;51.094;13.714;2023-09-18T03:49:43;99864.69;;;27.07;44.67
75656;BME280;64252;51.094;13.714;2023-09-18T03:52:09;99862.16;;;27.21;44.17
75656;BME280;64252;51.094;13.714;2023-09-18T03:54:35;99854.50;;;27.18;44.50
75656;BME280;64252;51.094;13.714;2023-09-18T03:57:01;99844.59;;;26.98;44.74
75656;BME280;64252;51.094;13.714;2023-09-18T03:59:26;99853.28;;;26.93;45.02
75656;BME280;64252;51.094;13.714;2023-09-18T04:01:52;99857.53;;;26.97;44.93
75656;BME280;64252;51.094;13.714;2023-09-18T04:04:18;99861.00;;;26.76;45.25
75656;BME280;64252;51.094;13.714;2023-09-18T04:06:43;99856.84;;;26.82;45.11
75656;BME280;64252;51.094;13.714;2023-09-18T04:09:10;99850.94;;;26.97;44.89
75656;BME280;64252;51.094;13.714;2023-09-18T04:11:36;99854.03;;;26.93;44.86
75656;BME280;64252;51.094;13.714;2023-09-18T04:14:01;99845.72;;;27.06;44.63
75656;BME280;64252;51.094;13.714;2023-09-18T04:16:29;99840.41;;;26.99;44.54
75656;BME280;64252;51.094;13.714;2023-09-18T04:19:03;99845.88;;;26.92;44.57
75656;BME280;64252;51.094;13.714;2023-09-18T04:21:29;99832.06;;;26.81;44.92
75656;BME280;64252;51.094;13.714;2023-09-18T04:23:55;99833.16;;;26.84;44.94
75656;BME280;64252;51.094;13.714;2023-09-18T04:26:24;99825.72;;;26.77;45.33
75656;BME280;64252;51.094;13.714;2023-09-18T04:28:50;99822.47;;;26.64;45.56
75656;BME280;64252;51.094;13.714;2023-09-18T04:31:16;99822.97;;;26.62;45.55
75656;BME280;64252;51.094;13.714;2023-09-18T04:33:42;99821.72;;;26.69;45.19
75656;BME280;64252;51.094;13.714;2023-09-18T04:36:07;99824.31;;;26.67;45.37
75656;BME280;64252;51.094;13.714;2023-09-18T04:38:33;99819.75;;;26.55;45.74
75656;BME280;64252;51.094;13.714;2023-09-18T04:41:00;99819.63;;;26.75;45.46
75656;BME280;64252;51.094;13.714;2023-09-18T04:43:26;99811.69;;;26.70;45.40
75656;BME280;64252;51.094;13.714;2023-09-18T04:45:56;99820.13;;;26.68;45.46
75656;BME280;64252;51.094;13.714;2023-09-18T04:48:22;99823.44;;;26.87;45.11
75656;BME280;64252;51.094;13.714;2023-09-18T04:50:48;99812.81;;;26.78;45.53
75656;BME280;64252;51.094;13.714;2023-09-18T04:53:17;99821.41;;;27.35;44.59
75656;BME280;64252;51.094;13.714;2023-09-18T04:55:42;99815.69;;;27.52;44.15
75656;BME280;64252;51.094;13.714;2023-09-18T04:58:08;99809.63;;;27.50;44.45
75656;BME280;64252;51.094;13.714;2023-09-18T05:00:34;99808.75;;;27.98;43.69
75656;BME280;64252;51.094;13.714;2023-09-18T05:03:00;99803.75;;;28.09;43.26
75656;BME280;64252;51.094;13.714;2023-09-18T05:05:30;99802.53;;;28.38;42.77
75656;BME280;64252;51.094;13.714;2023-09-18T05:07:55;99805.72;;;28.62;42.64
75656;BME280;64252;51.094;13.714;2023-09-18T05:10:22;99806.75;;;28.59;42.18
75656;BME280;64252;51.094;13.714;2023-09-18T05:12:48;99803.84;;;28.59;42.37
75656;BME280;64252;51.094;13.714;2023-09-18T05:15:16;99796.97;;;28.68;42.40
75656;BME280;64252;51.094;13.714;2023-09-18T05:17:47;99797.00;;;28.90;42.20
75656;BME280;64252;51.094;13.714;2023-09-18T05:20:16;99792.47;;;29.06;41.94
75656;BME280;64252;51.094;13.714;2023-09-18T05:22:52;99803.00;;;29.31;41.26
75656;BME280;64252;51.094;13.714;2023-09-18T05:25:50;99801.34;;;29.52;40.99
75656;BME280;64252;51.094;13.714;2023-09-18T05:28:19;99791.09;;;29.40;41.13
75656;BME280;64252;51.094;13.714;2023-09-18T05:30:45;99788.69;;;29.44;41.04
75656;BME280;64252;51.094;13.714;2023-09-18T05:33:10;99780.59;;;28.98;41.51
75656;BME280;64252;51.094;13.714;2023-09-18T05:35:40;99784.41;;;29.56;40.52
75656;BME280;64252;51.094;13.714;2023-09-18T05:38:07;99777.88;;;29.34;40.58
75656;BME280;64252;51.094;13.714;2023-09-18T05:40:34;99787.03;;;29.65;40.37
75656;BME280;64252;51.094;13.714;2023-09-18T05:43:00;99789.84;;;29.82;39.83
75656;BME280;64252;51.094;13.714;2023-09-18T05:45:26;99784.06;;;30.23;38.83
75656;BME280;64252;51.094;13.714;2023-09-18T05:47:52;99782.03;;;30.48;38.90
75656;BME280;64252;51.094;13.714;2023-09-18T05:50:30;99785.75;;;30.48;38.82
75656;BME280;64252;51.094;13.714;2023-09-18T05:52:57;99779.50;;;30.69;38.40
75656;BME280;64252;51.094;13.714;2023-09-18T05:55:28;99773.31;;;30.42;38.86
75656;BME280;64252;51.094;13.714;2023-09-18T05:57:54;99772.78;;;30.49;38.64
75656;BME280;64252;51.094;13.714;2023-09-18T06:00:20;99767.25;;;30.46;38.15
75656;BME280;64252;51.094;13.714;2023-09-18T06:02:47;99768.75;;;30.52;38.72
75656;BME280;64252;51.094;13.714;2023-09-18T06:05:13;99767.78;;;30.74;38.23
75656;BME280;64252;51.094;13.714;2023-09-18T06:07:41;99760.19;;;30.90;37.89
75656;BME280;64252;51.094;13.714;2023-09-18T06:10:09;99745.75;;;30.43;38.43
75656;BME280;64252;51.094;13.714;2023-09-18T06:12:34;99751.19;;;30.64;38.20
75656;BME280;64252;51.094;13.714;2023-09-18T06:15:00;99751.59;;;31.03;37.62
75656;BME280;64252;51.094;13.714;2023-09-18T06:17:26;99740.59;;;30.61;38.49
75656;BME280;64252;51.094;13.714;2023-09-18T06:19:51;99731.22;;;30.73;38.38
75656;BME280;64252;51.094;13.714;2023-09-18T06:22:17;99735.69;;;30.44;39.00
75656;BME280;64252;51.094;13.714;2023-09-18T06:24:43;99725.44;;;30.68;38.62
75656;BME280;64252;51.094;13.714;2023-09-18T06:27:09;99732.16;;;29.81;40.01
75656;BME280;64252;51.094;13.714;2023-09-18T06:29:36;99731.34;;;30.57;38.81
75656;BME280;64252;51.094;13.714;2023-09-18T06:32:04;99731.81;;;30.66;38.96
75656;BME280;64252;51.094;13.714;2023-09-18T06:34:31;99735.78;;;30.33;39.39
75656;BME280;64252;51.094;13.714;2023-09-18T06:36:57;99730.97;;;29.59;41.20
75656;BME280;64252;51.094;13.714;2023-09-18T06:39:23;99732.88;;;29.98;40.07
75656;BME280;64252;51.094;13.714;2023-09-18T06:41:50;99727.38;;;30.24;39.91
75656;BME280;64252;51.094;13.714;2023-09-18T06:44:18;99716.44;;;30.36;39.74
75656;BME280;64252;51.094;13.714;2023-09-18T06:46:44;99722.16;;;30.47;39.27
75656;BME280;64252;51.094;13.714;2023-09-18T06:52:00;99701.41;;;30.56;39.01
75656;BME280;64252;51.094;13.714;2023-09-18T06:54:25;99693.91;;;30.90;38.54
75656;BME280;64252;51.094;13.714;2023-09-18T06:56:51;99693.19;;;31.52;37.28
75656;BME280;64252;51.094;13.714;2023-09-18T06:59:17;99688.38;;;30.87;38.15
75656;BME280;64252;51.094;13.714;2023-09-18T07:01:42;99686.44;;;31.62;37.13
75656;BME280;64252;51.094;13.714;2023-09-18T07:04:08;99684.31;;;31.20;37.83
75656;BME280;64252;51.094;13.714;2023-09-18T07:06:34;99684.00;;;30.75;38.74
75656;BME280;64252;51.094;13.714;2023-09-18T07:08:59;99678.06;;;30.86;38.67
75656;BME280;64252;51.094;13.714;2023-09-18T07:11:25;99675.94;;;31.11;38.18
75656;BME280;64252;51.094;13.714;2023-09-18T07:13:51;99677.97;;;31.96;36.78
75656;BME280;64252;51.094;13.714;2023-09-18T07:16:17;99677.69;;;31.19;37.82
75656;BME280;64252;51.094;13.714;2023-09-18T07:18:43;99676.34;;;30.18;39.13
75656;BME280;64252;51.094;13.714;2023-09-18T07:21:09;99665.84;;;30.87;38.78
75656;BME280;64252;51.094;13.714;2023-09-18T07:23:34;99670.75;;;31.41;37.59
75656;BME280;64252;51.094;13.714;2023-09-18T07:26:03;99671.13;;;31.56;37.42
75656;BME280;64252;51.094;13.714;2023-09-18T07:28:29;99665.91;;;31.87;36.93
75656;BME280;64252;51.094;13.714;2023-09-18T07:30:54;99661.94;;;31.47;37.36
75656;BME280;64252;51.094;13.714;2023-09-18T07:33:20;99657.84;;;31.74;36.80
75656;BME280;64252;51.094;13.714;2023-09-18T07:35:47;99647.34;;;31.47;37.58
75656;BME280;64252;51.094;13.714;2023-09-18T07:38:14;99647.84;;;32.20;36.20
75656;BME280;64252;51.094;13.714;2023-09-18T07:40:40;99653.88;;;31.90;37.04
75656;BME280;64252;51.094;13.714;2023-09-18T07:43:06;99648.75;;;31.96;37.00
75656;BME280;64252;51.094;13.714;2023-09-18T07:45:31;99640.16;;;31.48;37.32
75656;BME280;64252;51.094;13.714;2023-09-18T07:47:58;99631.13;;;32.02;36.66
75656;BME280;64252;51.094;13.714;2023-09-18T07:50:24;99626.75;;;32.40;36.12
75656;BME280;64252;51.094;13.714;2023-09-18T07:52:50;99626.00;;;32.92;35.20
75656;BME280;64252;51.094;13.714;2023-09-18T07:55:15;99640.00;;;32.28;35.98
75656;BME280;64252;51.094;13.714;2023-09-18T07:57:41;99624.00;;;32.87;35.30
75656;BME280;64252;51.094;13.714;2023-09-18T08:00:07;99631.75;;;32.13;35.91
75656;BME280;64252;51.094;13.714;2023-09-18T08:02:39;99618.00;;;33.06;34.58
75656;BME280;64252;51.094;13.714;2023-09-18T08:05:05;99619.03;;;33.08;34.60
75656;BME280;64252;51.094;13.714;2023-09-18T08:07:32;99621.59;;;33.12;35.02
75656;BME280;64252;51.094;13.714;2023-09-18T08:09:58;99618.38;;;33.16;34.21
75656;BME280;64252;51.094;13.714;2023-09-18T08:12:23;99607.53;;;33.37;34.01
75656;BME280;64252;51.094;13.714;2023-09-18T08:14:49;99605.22;;;32.96;34.61
75656;BME280;64252;51.094;13.714;2023-09-18T08:17:16;99602.13;;;33.95;32.98
75656;BME280;64252;51.094;13.714;2023-09-18T08:19:42;99604.28;;;33.95;33.48
75656;BME280;64252;51.094;13.714;2023-09-18T08:22:10;99607.09;;;34.70;31.88
75656;BME280;64252;51.094;13.714;2023-09-18T08:24:40;99604.56;;;34.05;33.13
75656;BME280;64252;51.094;13.714;2023-09-18T08:27:06;99610.22;;;34.03;32.97
75656;BME280;64252;51.094;13.714;2023-09-18T08:29:32;99615.28;;;34.02;32.94
75656;BME280;64252;51.094;13.714;2023-09-18T08:31:57;99612.88;;;34.14;33.05
75656;BME280;64252;51.094;13.714;2023-09-18T08:34:23;99614.47;;;34.92;31.66
75656;BME280;64252;51.094;13.714;2023-09-18T08:36:49;99608.50;;;35.49;31.03
75656;BME280;64252;51.094;13.714;2023-09-18T08:39:14;99615.78;;;34.55;31.85
75656;BME280;64252;51.094;13.714;2023-09-18T08:41:42;99595.81;;;35.61;30.65
75656;BME280;64252;51.094;13.714;2023-09-18T08:44:08;99612.66;;;35.17;30.93
75656;BME280;64252;51.094;13.714;2023-09-18T08:46:39;99598.06;;;34.40;31.42
75656;BME280;64252;51.094;13.714;2023-09-18T08:49:07;99594.38;;;36.06;29.97
75656;BME280;64252;51.094;13.714;2023-09-18T08:51:34;99587.34;;;34.71;31.11
75656;BME280;64252;51.094;13.714;2023-09-18T08:54:02;99583.59;;;34.99;30.87
75656;BME280;64252;51.094;13.714;2023-09-18T08:56:28;99583.44;;;35.48;30.40
75656;BME280;64252;51.094;13.714;2023-09-18T08:58:54;99579.09;;;35.34;30.22
75656;BME280;64252;51.094;13.714;2023-09-18T09:01:22;99580.81;;;35.95;29.58
75656;BME280;64252;51.094;13.714;2023-09-18T09:03:47;99575.38;;;36.22;29.32
75656;BME280;64252;51.094;13.714;2023-09-18T09:06:14;99580.06;;;36.10;29.69
75656;BME280;64252;51.094;13.714;2023-09-18T09:08:40;99574.75;;;36.69;28.91
75656;BME280;64252;51.094;13.714;2023-09-18T09:11:06;99569.75;;;35.50;29.55
75656;BME280;64252;51.094;13.714;2023-09-18T09:13:31;99573.03;;;36.43;29.07
75656;BME280;64252;51.094;13.714;2023-09-18T09:15:58;99570.28;;;36.23;29.15
75656;BME280;64252;51.094;13.714;2023-09-18T09:18:28;99560.09;;;36.16;28.94
75656;BME280;64252;51.094;13.714;2023-09-18T09:20:56;99555.63;;;37.08;28.22
75656;BME280;64252;51.094;13.714;2023-09-18T09:23:25;99558.44;;;36.91;28.24
75656;BME280;64252;51.094;13.714;2023-09-18T09:25:51;99558.53;;;36.30;28.90
75656;BME280;64252;51.094;13.714;2023-09-18T09:28:29;99556.16;;;36.36;28.18
75656;BME280;64252;51.094;13.714;2023-09-18T09:31:03;99545.25;;;36.92;27.59
75656;BME280;64252;51.094;13.714;2023-09-18T09:33:29;99549.88;;;36.32;28.25
75656;BME280;64252;51.094;13.714;2023-09-18T09:35:56;99547.78;;;37.03;27.49
75656;BME280;64252;51.094;13.714;2023-09-18T09:38:28;99561.59;;;36.85;27.35
75656;BME280;64252;51.094;13.714;2023-09-18T09:40:57;99551.84;;;37.63;26.53
75656;BME280;64252;51.094;13.714;2023-09-18T09:43:26;99551.00;;;37.70;26.69
75656;BME280;64252;51.094;13.714;2023-09-18T09:45:59;99550.16;;;37.77;26.57
75656;BME280;64252;51.094;13.714;2023-09-18T09:48:26;99550.28;;;38.61;25.79
75656;BME280;64252;51.094;13.714;2023-09-18T09:50:57;99542.03;;;37.60;26.37
75656;BME280;64252;51.094;13.714;2023-09-18T09:53:46;99562.59;;;38.00;25.88
75656;BME280;64252;51.094;13.714;2023-09-18T09:56:14;99564.72;;;38.74;26.30
75656;BME280;64252;51.094;13.714;2023-09-18T09:58:40;99564.88;;;38.76;25.73
75656;BME280;64252;51.094;13.714;2023-09-18T10:01:12;99576.81;;;38.44;26.38
75656;BME280;64252;51.094;13.714;2023-09-18T10:03:44;99572.34;;;38.60;26.58
75656;BME280;64252;51.094;13.714;2023-09-18T10:06:11;99580.94;;;38.66;25.89
75656;BME280;64252;51.094;13.714;2023-09-18T10:08:39;99582.53;;;39.35;24.94
75656;BME280;64252;51.094;13.714;2023-09-18T10:11:07;99586.34;;;39.45;24.70
75656;BME280;64252;51.094;13.714;2023-09-18T10:13:49;99583.94;;;39.78;24.52
75656;BME280;64252;51.094;13.714;2023-09-18T10:16:18;99579.63;;;38.76;25.12
75656;BME280;64252;51.094;13.714;2023-09-18T10:18:56;99579.84;;;38.95;24.75
75656;BME280;64252;51.094;13.714;2023-09-18T10:21:48;99571.75;;;40.38;23.37
75656;BME280;64252;51.094;13.714;2023-09-18T10:24:25;99563.78;;;40.86;22.84
75656;BME280;64252;51.094;13.714;2023-09-18T10:29:24;99573.56;;;41.75;22.49
75656;BME280;64252;51.094;13.714;2023-09-18T10:31:54;99562.50;;;40.80;22.75
75656;BME280;64252;51.094;13.714;2023-09-18T10:34:22;99552.53;;;40.85;22.50
75656;BME280;64252;51.094;13.714;2023-09-18T10:36:50;99556.28;;;40.75;23.10
75656;BME280;64252;51.094;13.714;2023-09-18T10:39:17;99560.28;;;40.15;23.29
75656;BME280;64252;51.094;13.714;2023-09-18T10:41:52;99554.56;;;39.63;23.91
75656;BME280;64252;51.094;13.714;2023-09-18T10:44:19;99550.31;;;39.13;24.58
75656;BME280;64252;51.094;13.714;2023-09-18T10:46:49;99543.00;;;39.14;24.70
75656;BME280;64252;51.094;13.714;2023-09-18T10:49:15;99547.69;;;39.34;25.12
75656;BME280;64252;51.094;13.714;2023-09-18T10:51:42;99548.59;;;40.17;23.89
75656;BME280;64252;51.094;13.714;2023-09-18T10:54:10;99545.66;;;39.80;23.89
75656;BME280;64252;51.094;13.714;2023-09-18T10:56:36;99540.22;;;39.16;24.56
75656;BME280;64252;51.094;13.714;2023-09-18T10:59:05;99535.22;;;39.79;24.42
75656;BME280;64252;51.094;13.714;2023-09-18T11:01:32;99542.66;;;40.53;23.83
75656;BME280;64252;51.094;13.714;2023-09-18T11:04:03;99548.00;;;39.55;24.43
75656;BME280;64252;51.094;13.714;2023-09-18T11:06:29;99554.53;;;39.19;24.50
75656;BME280;64252;51.094;13.714;2023-09-18T11:09:00;99547.28;;;39.03;24.60
75656;BME280;64252;51.094;13.714;2023-09-18T11:11:30;99543.69;;;39.04;24.71
75656;BME280;64252;51.094;13.714;2023-09-18T11:13:58;99544.38;;;39.30;24.44
75656;BME280;64252;51.094;13.714;2023-09-18T11:21:27;99555.00;;;39.60;25.15
75656;BME280;64252;51.094;13.714;2023-09-18T11:26:29;99548.59;;;39.54;25.17
75656;BME280;64252;51.094;13.714;2023-09-18T11:28:58;99555.00;;;39.60;24.56
75656;BME280;64252;51.094;13.714;2023-09-18T11:34:29;99550.63;;;39.61;24.94
75656;BME280;64252;51.094;13.714;2023-09-18T11:37:02;99554.19;;;40.13;24.49
75656;BME280;64252;51.094;13.714;2023-09-18T11:39:44;99558.97;;;38.59;24.80
75656;BME280;64252;51.094;13.714;2023-09-18T11:44:37;99553.25;;;40.56;23.40
75656;BME280;64252;51.094;13.714;2023-09-18T11:47:11;99550.56;;;40.41;23.01
75656;BME280;64252;51.094;13.714;2023-09-18T11:50:07;99552.19;;;38.24;24.89
75656;BME280;64252;51.094;13.714;2023-09-18T11:52:36;99549.53;;;39.56;23.92
75656;BME280;64252;51.094;13.714;2023-09-18T11:55:02;99543.16;;;38.81;24.66
75656;BME280;64252;51.094;13.714;2023-09-18T11:57:29;99542.94;;;40.02;23.48
75656;BME280;64252;51.094;13.714;2023-09-18T12:00:01;99544.75;;;40.99;22.11
75656;BME280;64252;51.094;13.714;2023-09-18T12:02:37;99547.69;;;41.37;21.92
75656;BME280;64252;51.094;13.714;2023-09-18T12:05:11;99552.06;;;41.36;22.40
75656;BME280;64252;51.094;13.714;2023-09-18T12:07:40;99548.78;;;41.61;21.43
75656;BME280;64252;51.094;13.714;2023-09-18T12:10:09;99542.59;;;41.09;21.73
75656;BME280;64252;51.094;13.714;2023-09-18T12:12:35;99534.16;;;41.15;22.28
75656;BME280;64252;51.094;13.714;2023-09-18T12:15:01;99533.22;;;41.91;22.63
75656;BME280;64252;51.094;13.714;2023-09-18T12:17:27;99537.53;;;41.59;22.77
75656;BME280;64252;51.094;13.714;2023-09-18T12:19:54;99532.34;;;42.10;22.90
75656;BME280;64252;51.094;13.714;2023-09-18T12:22:27;99530.47;;;41.74;22.72
75656;BME280;64252;51.094;13.714;2023-09-18T12:24:53;99532.81;;;42.16;22.74
75656;BME280;64252;51.094;13.714;2023-09-18T12:27:19;99529.75;;;40.97;23.68
75656;BME280;64252;51.094;13.714;2023-09-18T12:29:44;99531.56;;;39.71;25.26
75656;BME280;64252;51.094;13.714;2023-09-18T12:32:11;99537.50;;;40.44;24.78
75656;BME280;64252;51.094;13.714;2023-09-18T12:34:43;99533.75;;;40.34;24.20
75656;BME280;64252;51.094;13.714;2023-09-18T12:37:09;99531.03;;;39.82;25.14
75656;BME280;64252;51.094;13.714;2023-09-18T12:39:37;99532.72;;;39.76;25.13
75656;BME280;64252;51.094;13.714;2023-09-18T12:42:04;99541.69;;;39.68;25.06
75656;BME280;64252;51.094;13.714;2023-09-18T12:44:30;99539.56;;;40.61;24.50
75656;BME280;64252;51.094;13.714;2023-09-18T12:46:56;99538.25;;;40.35;24.57
75656;BME280;64252;51.094;13.714;2023-09-18T12:49:23;99546.53;;;40.46;24.68
75656;BME280;64252;51.094;13.714;2023-09-18T12:51:57;99553.22;;;40.47;24.74
75656;BME280;64252;51.094;13.714;2023-09-18T12:57:04;99554.22;;;40.78;24.23
75656;BME280;64252;51.094;13.714;2023-09-18T12:59:32;99541.94;;;40.72;24.72
75656;BME280;64252;51.094;13.714;2023-09-18T13:04:25;99549.28;;;41.09;24.64
75656;BME280;64252;51.094;13.714;2023-09-18T13:07:09;99533.84;;;40.92;23.70
75656;BME280;64252;51.094;13.714;2023-09-18T13:09:35;99545.34;;;40.88;23.97
75656;BME280;64252;51.094;13.714;2023-09-18T13:12:01;99542.59;;;41.09;23.81
75656;BME280;64252;51.094;13.714;2023-09-18T13:14:26;99537.56;;;41.02;23.92
75656;BME280;64252;51.094;13.714;2023-09-18T13:16:53;99538.69;;;41.06;23.71